createdAt,value
2022-11-15T00:02:11.550Z,2.00
2022-11-15T00:04:38.208Z,1.90
2022-11-15T00:07:04.866Z,1.93
2022-11-15T00:09:31.463Z,2.10
2022-11-15T00:11:58.044Z,1.90
2022-11-15T00:14:24.612Z,1.73
2022-11-15T00:16:51.195Z,1.93
2022-11-15T00:19:17.767Z,2.00
2022-11-15T00:21:44.326Z,1.80
2022-11-15T00:24:10.935Z,1.83
2022-11-15T00:26:37.529Z,1.90
2022-11-15T00:29:04.116Z,2.00
2022-11-15T00:31:30.695Z,2.00
2022-11-15T00:33:57.298Z,2.03
2022-11-15T00:36:23.870Z,2.20
2022-11-15T00:38:50.436Z,1.90
2022-11-15T00:41:17.007Z,2.00
2022-11-15T00:43:44.607Z,2.13
2022-11-15T00:46:11.451Z,2.00
2022-11-15T00:48:38.159Z,2.13
2022-11-15T00:51:04.764Z,1.83
2022-11-15T00:53:31.692Z,1.70
2022-11-15T00:55:58.486Z,1.70
2022-11-15T00:58:25.082Z,2.17
2022-11-15T01:00:51.717Z,1.90
2022-11-15T01:03:18.340Z,1.90
2022-11-15T01:05:44.897Z,1.90
2022-11-15T01:08:17.629Z,2.10
2022-11-15T01:10:44.195Z,2.00
2022-11-15T01:13:10.808Z,1.80
2022-11-15T01:15:41.173Z,1.60
2022-11-15T01:18:07.765Z,2.07
2022-11-15T01:20:34.333Z,2.00
2022-11-15T01:23:00.913Z,1.80
2022-11-15T01:25:27.490Z,1.70
2022-11-15T01:27:54.104Z,1.80
2022-11-15T01:30:20.673Z,1.93
2022-11-15T01:32:47.259Z,2.00
2022-11-15T01:35:13.880Z,1.80
2022-11-15T01:37:40.469Z,1.90
2022-11-15T01:40:07.390Z,1.90
2022-11-15T01:42:33.968Z,1.70
2022-11-15T01:45:00.547Z,2.00
2022-11-15T01:47:34.511Z,1.90
2022-11-15T01:50:09.818Z,1.80
2022-11-15T01:52:36.562Z,1.83
2022-11-15T01:55:12.335Z,2.00
2022-11-15T01:57:39.608Z,1.63
2022-11-15T02:00:06.955Z,1.83
2022-11-15T02:02:33.951Z,1.87
2022-11-15T02:05:00.519Z,1.93
2022-11-15T02:07:27.195Z,1.90
2022-11-15T02:09:53.801Z,1.97
2022-11-15T02:12:21.363Z,1.90
2022-11-15T02:14:52.985Z,2.10
2022-11-15T02:17:53.638Z,1.80
2022-11-15T02:20:44.451Z,2.03
2022-11-15T02:23:32.920Z,2.00
2022-11-15T02:26:17.542Z,1.83
2022-11-15T02:29:22.501Z,1.90
2022-11-15T02:31:52.771Z,2.00
2022-11-15T02:34:33.188Z,1.80
2022-11-15T02:37:13.079Z,1.90
2022-11-15T02:40:01.499Z,2.00
2022-11-15T02:42:51.989Z,1.90
2022-11-15T02:45:22.665Z,1.80
2022-11-15T02:47:49.244Z,1.90
2022-11-15T02:50:18.002Z,1.97
2022-11-15T02:52:46.899Z,2.03
2022-11-15T02:55:32.780Z,1.90
2022-11-15T02:58:12.170Z,2.00
2022-11-15T03:00:48.204Z,1.87
2022-11-15T03:03:27.183Z,2.00
2022-11-15T03:05:59.347Z,1.80
2022-11-15T03:08:43.887Z,1.80
2022-11-15T03:11:12.501Z,1.80
2022-11-15T03:13:58.035Z,2.10
2022-11-15T03:16:50.026Z,1.97
2022-11-15T03:19:34.663Z,1.87
2022-11-15T03:22:01.616Z,2.00
2022-11-15T03:24:28.353Z,2.00
2022-11-15T03:26:55.118Z,1.80
2022-11-15T03:29:28.249Z,1.60
2022-11-15T03:31:58.235Z,1.80
2022-11-15T03:34:52.320Z,1.80
2022-11-15T03:37:18.914Z,2.20
2022-11-15T03:39:45.481Z,1.97
2022-11-15T03:42:29.165Z,1.80
2022-11-15T03:45:06.426Z,1.93
2022-11-15T03:47:34.107Z,1.60
2022-11-15T03:50:03.816Z,1.87
2022-11-15T03:52:32.647Z,1.70
2022-11-15T03:54:59.296Z,1.70
2022-11-15T03:57:25.883Z,1.97
2022-11-15T03:59:52.462Z,2.00
2022-11-15T04:02:19.043Z,1.90
2022-11-15T04:04:45.619Z,1.90
2022-11-15T04:07:12.260Z,1.70
2022-11-15T04:09:59.200Z,1.83
2022-11-15T04:12:31.984Z,1.67
2022-11-15T04:15:08.406Z,2.07
2022-11-15T04:17:39.818Z,1.60
2022-11-15T04:20:35.946Z,1.70
2022-11-15T04:23:22.510Z,1.80
2022-11-15T04:25:51.137Z,1.80
2022-11-15T04:28:17.774Z,1.60
2022-11-15T04:30:44.416Z,1.83
2022-11-15T04:33:11.006Z,1.90
2022-11-15T04:35:37.570Z,1.70
2022-11-15T04:38:04.857Z,1.87
2022-11-15T04:40:31.444Z,1.90
2022-11-15T04:43:03.391Z,1.80
2022-11-15T04:45:30.829Z,1.77
2022-11-15T04:47:57.407Z,1.70
2022-11-15T04:50:24.005Z,1.70
2022-11-15T04:52:54.334Z,1.93
2022-11-15T04:55:21.038Z,1.70
2022-11-15T04:57:47.623Z,1.70
2022-11-15T05:00:15.543Z,1.73
2022-11-15T05:03:00.613Z,1.50
2022-11-15T05:05:27.183Z,2.00
2022-11-15T05:07:53.757Z,1.70
2022-11-15T05:10:20.323Z,1.90
2022-11-15T05:12:47.767Z,1.80
2022-11-15T05:15:14.362Z,1.80
2022-11-15T05:17:40.947Z,1.90
2022-11-15T05:20:08.012Z,1.90
2022-11-15T05:22:34.603Z,1.97
2022-11-15T05:25:01.175Z,1.80
2022-11-15T05:27:27.753Z,1.77
2022-11-15T05:29:54.360Z,1.60
2022-11-15T05:32:20.946Z,1.57
2022-11-15T05:34:48.055Z,1.70
2022-11-15T05:37:15.039Z,1.87
2022-11-15T05:39:41.617Z,1.73
2022-11-15T05:42:12.767Z,2.07
2022-11-15T05:44:40.455Z,2.00
2022-11-15T05:47:07.080Z,1.83
2022-11-15T05:49:35.342Z,1.70
2022-11-15T05:52:03.167Z,1.60
2022-11-15T05:54:29.735Z,1.70
2022-11-15T05:56:56.753Z,1.73
2022-11-15T05:59:23.326Z,1.60
2022-11-15T06:01:50.077Z,1.70
2022-11-15T06:04:16.739Z,1.80
2022-11-15T06:06:43.303Z,1.70
2022-11-15T06:09:09.890Z,1.70
2022-11-15T06:11:36.483Z,1.73
2022-11-15T06:14:03.115Z,1.80
2022-11-15T06:16:29.682Z,1.93
2022-11-15T06:18:56.269Z,1.73
2022-11-15T06:21:23.042Z,1.83
2022-11-15T06:23:49.657Z,1.80
2022-11-15T06:26:16.228Z,1.73
2022-11-15T06:28:42.865Z,1.70
2022-11-15T06:31:11.853Z,1.70
2022-11-15T06:33:39.549Z,1.60
2022-11-15T06:36:10.004Z,1.70
2022-11-15T06:38:39.766Z,1.70
2022-11-15T06:41:08.149Z,1.60
2022-11-15T06:43:35.143Z,1.60
2022-11-15T06:46:02.295Z,1.90
2022-11-15T06:48:29.347Z,1.60
2022-11-15T06:50:59.683Z,1.77
2022-11-15T06:53:26.442Z,1.57
2022-11-15T06:55:55.425Z,1.80
2022-11-15T06:58:22.429Z,1.70
2022-11-15T07:00:49.056Z,1.63
2022-11-15T07:03:15.669Z,1.70
2022-11-15T07:05:42.281Z,1.60
2022-11-15T07:08:08.860Z,1.50
2022-11-15T07:10:35.426Z,1.80
2022-11-15T07:13:02.020Z,1.63
2022-11-15T07:15:28.617Z,1.60
2022-11-15T07:17:55.193Z,1.63
2022-11-15T07:20:21.761Z,1.80
2022-11-15T07:22:48.347Z,1.40
2022-11-15T07:25:14.929Z,1.50
2022-11-15T07:27:41.717Z,1.73
2022-11-15T07:30:08.994Z,1.70
2022-11-15T07:32:35.715Z,1.97
2022-11-15T07:35:02.277Z,1.80
2022-11-15T07:37:28.858Z,1.70
2022-11-15T07:39:55.422Z,1.60
2022-11-15T07:42:40.370Z,1.43
2022-11-15T07:45:07.234Z,1.47
2022-11-15T07:47:33.875Z,1.40
2022-11-15T07:50:00.465Z,1.57
2022-11-15T07:52:27.044Z,1.63
2022-11-15T07:54:53.616Z,1.70
2022-11-15T07:57:20.203Z,1.87
2022-11-15T07:59:46.827Z,1.90
2022-11-15T08:02:13.534Z,1.50
2022-11-15T08:04:40.296Z,1.67
2022-11-15T08:07:06.938Z,1.50
2022-11-15T08:09:33.576Z,1.50
2022-11-15T08:12:00.155Z,1.87
2022-11-15T08:14:26.780Z,1.60
2022-11-15T08:16:53.481Z,1.60
2022-11-15T08:19:20.056Z,1.50
2022-11-15T08:21:46.622Z,1.43
2022-11-15T08:24:13.198Z,1.70
2022-11-15T08:26:40.403Z,1.70
2022-11-15T08:29:09.415Z,1.50
2022-11-15T08:31:37.359Z,1.70
2022-11-15T08:34:04.691Z,1.53
2022-11-15T08:36:38.018Z,1.40
2022-11-15T08:39:13.335Z,1.63
2022-11-15T08:41:39.962Z,1.47
2022-11-15T08:44:06.554Z,1.50
2022-11-15T08:46:33.121Z,1.57
2022-11-15T08:48:59.700Z,1.80
2022-11-15T08:51:26.262Z,1.30
2022-11-15T08:53:53.091Z,1.70
2022-11-15T08:56:19.658Z,1.70
2022-11-15T08:58:47.725Z,1.70
2022-11-15T09:01:19.020Z,1.80
2022-11-15T09:03:45.732Z,1.57
2022-11-15T09:06:12.842Z,1.70
2022-11-15T09:08:48.128Z,1.70
2022-11-15T09:11:17.340Z,1.40
2022-11-15T09:13:43.910Z,1.53
2022-11-15T09:16:12.739Z,1.73
2022-11-15T09:18:39.373Z,1.60
2022-11-15T09:21:05.947Z,1.60
2022-11-15T09:23:32.521Z,1.70
2022-11-15T09:26:03.586Z,1.40
2022-11-15T09:28:30.639Z,1.50
2022-11-15T09:31:02.928Z,1.47
2022-11-15T09:33:30.124Z,1.50
2022-11-15T09:36:10.379Z,1.50
2022-11-15T09:38:36.972Z,1.53
2022-11-15T09:41:15.506Z,1.50
2022-11-15T09:43:55.737Z,1.60
2022-11-15T09:46:43.358Z,1.43
2022-11-15T09:49:09.948Z,1.57
2022-11-15T09:51:47.460Z,1.57
2022-11-15T09:57:31.305Z,1.70
2022-11-15T10:00:45.836Z,1.50
2022-11-15T10:03:13.222Z,1.60
2022-11-15T10:05:42.654Z,1.67
2022-11-15T10:08:46.693Z,1.60
2022-11-15T10:14:18.736Z,1.47
2022-11-15T10:17:10.780Z,1.50
2022-11-15T10:20:05.665Z,1.50
2022-11-15T10:22:51.586Z,1.80
2022-11-15T10:25:22.501Z,1.50
2022-11-15T10:27:54.331Z,1.60
2022-11-15T10:30:20.999Z,1.67
2022-11-15T10:32:48.061Z,1.67
2022-11-15T10:35:24.919Z,1.50
2022-11-15T10:37:51.491Z,1.50
2022-11-15T10:40:22.375Z,1.73
2022-11-15T10:42:49.917Z,1.60
2022-11-15T10:45:30.523Z,1.50
2022-11-15T10:48:19.872Z,1.50
2022-11-15T10:50:47.551Z,1.60
2022-11-15T10:53:34.523Z,1.70
2022-11-15T10:56:09.189Z,1.50
2022-11-15T10:58:41.131Z,1.10
2022-11-15T11:01:19.551Z,1.60
2022-11-15T11:03:58.986Z,1.57
2022-11-15T11:06:25.596Z,1.47
2022-11-15T11:09:03.558Z,1.60
2022-11-15T11:11:49.709Z,1.60
2022-11-15T11:14:24.327Z,1.63
2022-11-15T11:16:53.975Z,1.40
2022-11-15T11:19:52.987Z,1.50
2022-11-15T11:22:56.858Z,1.63
2022-11-15T11:25:30.016Z,1.40
2022-11-15T11:28:21.303Z,1.50
2022-11-15T11:31:00.565Z,1.50
2022-11-15T11:33:30.942Z,1.50
2022-11-15T11:36:17.118Z,1.40
2022-11-15T11:39:20.030Z,1.50
2022-11-15T11:42:05.054Z,1.43
2022-11-15T11:44:48.712Z,1.50
2022-11-15T11:47:20.397Z,1.23
2022-11-15T11:50:12.799Z,1.47
2022-11-15T11:52:49.723Z,1.50
2022-11-15T11:55:20.190Z,1.57
2022-11-15T11:58:04.358Z,1.50
2022-11-15T12:00:32.894Z,1.70
2022-11-15T12:03:08.813Z,1.40
2022-11-15T12:05:48.090Z,1.53
2022-11-15T12:08:53.100Z,1.40
2022-11-15T12:11:47.578Z,1.50
2022-11-15T12:14:34.161Z,1.37
2022-11-15T12:17:00.778Z,1.50
2022-11-15T12:19:27.386Z,1.60
2022-11-15T12:22:14.713Z,1.47
2022-11-15T12:24:49.098Z,1.70
2022-11-15T12:27:39.537Z,1.30
2022-11-15T12:30:14.213Z,1.40
2022-11-15T12:32:49.871Z,1.50
2022-11-15T12:35:38.365Z,1.60
2022-11-15T12:38:05.324Z,1.50
2022-11-15T12:40:36.948Z,1.27
2022-11-15T12:43:14.009Z,1.40
2022-11-15T12:45:44.939Z,1.20
2022-11-15T12:48:17.450Z,1.47
2022-11-15T12:50:55.762Z,1.50
2022-11-15T12:53:25.504Z,1.40
2022-11-15T12:56:13.652Z,1.50
2022-11-15T12:58:49.098Z,1.50
2022-11-15T13:01:36.851Z,1.50
2022-11-15T13:04:25.302Z,1.40
2022-11-15T13:07:05.218Z,1.40
2022-11-15T13:09:34.807Z,1.30
2022-11-15T13:12:14.561Z,1.40
2022-11-15T13:14:54.830Z,1.30
2022-11-15T13:17:28.722Z,1.27
2022-11-15T13:20:07.102Z,1.50
2022-11-15T13:23:05.672Z,1.43
2022-11-15T13:26:10.095Z,1.33
2022-11-15T13:28:42.389Z,1.47
2022-11-15T13:31:25.265Z,1.30
2022-11-15T13:33:52.076Z,1.40
2022-11-15T13:36:34.216Z,1.40
2022-11-15T13:39:04.806Z,1.37
2022-11-15T13:41:33.030Z,1.60
2022-11-15T13:44:00.119Z,1.30
2022-11-15T13:46:33.920Z,1.30
2022-11-15T13:49:02.109Z,1.60
2022-11-15T13:51:51.294Z,1.30
2022-11-15T13:54:29.845Z,1.30
2022-11-15T13:57:19.539Z,1.40
2022-11-15T14:00:43.066Z,1.20
2022-11-15T14:03:34.867Z,1.30
2022-11-15T14:06:07.297Z,1.50
2022-11-15T14:08:34.688Z,1.43
2022-11-15T14:11:30.782Z,1.40
2022-11-15T14:14:09.794Z,1.40
2022-11-15T14:16:41.196Z,1.30
2022-11-15T14:19:10.839Z,1.40
2022-11-15T14:21:38.534Z,1.67
2022-11-15T14:24:17.709Z,1.40
2022-11-15T14:26:44.391Z,1.30
2022-11-15T14:29:27.422Z,1.27
2022-11-15T14:31:54.679Z,1.30
2022-11-15T14:34:23.086Z,1.43
2022-11-15T14:36:49.651Z,1.40
2022-11-15T14:39:16.226Z,1.40
2022-11-15T14:41:43.880Z,1.40
2022-11-15T14:44:11.344Z,1.50
2022-11-15T14:46:37.912Z,1.30
2022-11-15T14:49:04.495Z,1.20
2022-11-15T14:51:31.095Z,1.50
2022-11-15T14:53:57.685Z,1.60
2022-11-15T14:56:24.281Z,1.40
2022-11-15T14:58:50.877Z,1.30
2022-11-15T15:01:22.342Z,1.20
2022-11-15T15:03:48.930Z,1.33
2022-11-15T15:06:18.306Z,1.30
2022-11-15T15:08:46.636Z,1.50
2022-11-15T15:11:37.813Z,1.40
2022-11-15T15:14:04.378Z,1.20
2022-11-15T15:16:30.942Z,1.30
2022-11-15T15:18:57.526Z,1.27
2022-11-15T15:21:36.926Z,1.63
2022-11-15T15:24:04.278Z,1.20
2022-11-15T15:26:34.527Z,1.30
2022-11-15T15:29:01.138Z,1.20
2022-11-15T15:31:27.710Z,1.30
2022-11-15T15:33:54.361Z,1.30
2022-11-15T15:36:20.996Z,1.50
2022-11-15T15:38:47.745Z,1.17
2022-11-15T15:41:17.497Z,1.37
2022-11-15T15:43:44.774Z,1.30
2022-11-15T15:46:12.617Z,1.10
2022-11-15T15:48:40.391Z,1.30
2022-11-15T15:51:14.125Z,1.10
2022-11-15T15:53:45.223Z,1.30
2022-11-15T15:56:11.811Z,1.47
2022-11-15T15:58:38.418Z,1.40
2022-11-15T16:01:05.175Z,1.20
2022-11-15T16:03:32.409Z,1.30
2022-11-15T16:05:59.515Z,1.20
2022-11-15T16:08:27.608Z,1.30
2022-11-15T16:10:54.226Z,1.40
2022-11-15T16:13:20.822Z,1.23
2022-11-15T16:15:48.587Z,1.20
2022-11-15T16:18:18.465Z,1.10
2022-11-15T16:20:46.524Z,1.47
2022-11-15T16:23:14.736Z,1.40
2022-11-15T16:25:49.213Z,1.40
2022-11-15T16:28:26.814Z,1.40
2022-11-15T16:31:05.532Z,1.20
2022-11-15T16:33:32.581Z,1.30
2022-11-15T16:35:59.457Z,1.43
2022-11-15T16:38:26.033Z,1.20
2022-11-15T16:40:52.623Z,1.20
2022-11-15T16:43:19.327Z,1.20
2022-11-15T16:45:45.985Z,1.50
2022-11-15T16:48:23.760Z,1.20
2022-11-15T16:50:50.609Z,1.37
2022-11-15T16:53:17.231Z,1.33
2022-11-15T16:55:43.828Z,1.27
2022-11-15T16:58:10.619Z,1.20
2022-11-15T17:00:37.251Z,1.30
2022-11-15T17:03:03.878Z,1.20
2022-11-15T17:05:30.478Z,1.20
2022-11-15T17:07:57.447Z,1.40
2022-11-15T17:10:24.895Z,1.13
2022-11-15T17:12:51.623Z,1.20
2022-11-15T17:15:18.426Z,1.17
2022-11-15T17:17:45.137Z,1.30
2022-11-15T17:20:16.123Z,1.23
2022-11-15T17:22:42.732Z,1.20
2022-11-15T17:25:09.814Z,1.30
2022-11-15T17:27:36.378Z,1.27
2022-11-15T17:30:03.395Z,1.00
2022-11-15T17:32:29.960Z,1.13
2022-11-15T17:34:56.622Z,1.20
2022-11-15T17:37:23.199Z,1.43
2022-11-15T17:39:49.776Z,1.60
2022-11-15T17:42:16.369Z,1.10
2022-11-15T17:44:42.938Z,1.20
2022-11-15T17:47:09.514Z,1.30
2022-11-15T17:49:39.362Z,1.10
2022-11-15T17:52:06.124Z,1.30
2022-11-15T17:54:32.692Z,1.20
2022-11-15T17:56:59.310Z,1.13
2022-11-15T17:59:25.900Z,1.40
2022-11-15T18:01:53.942Z,1.20
2022-11-15T18:04:20.622Z,1.40
2022-11-15T18:06:47.440Z,1.30
2022-11-15T18:09:14.084Z,1.20
2022-11-15T18:11:41.876Z,1.13
2022-11-15T18:14:10.794Z,1.10
2022-11-15T18:16:37.552Z,1.20
2022-11-15T18:19:08.892Z,1.23
2022-11-15T18:21:55.479Z,1.20
2022-11-15T18:24:30.816Z,1.40
2022-11-15T18:26:58.098Z,1.20
2022-11-15T18:29:24.833Z,1.13
2022-11-15T18:31:54.947Z,1.17
2022-11-15T18:34:24.988Z,1.20
2022-11-15T18:36:52.340Z,1.20
2022-11-15T18:39:18.963Z,1.20
2022-11-15T18:41:46.697Z,1.10
2022-11-15T18:44:13.274Z,1.20
2022-11-15T18:46:39.915Z,1.27
2022-11-15T18:49:09.279Z,1.20
2022-11-15T18:51:36.738Z,1.00
2022-11-15T18:54:03.393Z,1.20
2022-11-15T18:56:30.885Z,1.30
2022-11-15T18:58:59.065Z,1.30
2022-11-15T19:01:53.666Z,1.20
2022-11-15T19:04:20.575Z,1.20
2022-11-15T19:06:48.380Z,1.20
2022-11-15T19:09:16.191Z,1.30
2022-11-15T19:11:43.718Z,1.13
2022-11-15T19:14:11.643Z,1.20
2022-11-15T19:16:44.522Z,1.20
2022-11-15T19:19:14.254Z,1.30
2022-11-15T19:21:41.381Z,1.30
2022-11-15T19:24:08.135Z,1.27
2022-11-15T19:26:37.688Z,1.10
2022-11-15T19:29:04.567Z,1.20
2022-11-15T19:31:31.540Z,1.10
2022-11-15T19:33:59.402Z,1.23
2022-11-15T19:36:32.399Z,1.30
2022-11-15T19:38:59.855Z,1.20
2022-11-15T19:41:26.599Z,1.27
2022-11-15T19:43:53.208Z,1.10
2022-11-15T19:46:21.780Z,1.20
2022-11-15T19:48:48.458Z,1.27
2022-11-15T19:51:16.792Z,1.20
2022-11-15T19:53:43.574Z,1.20
2022-11-15T19:56:14.600Z,1.20
2022-11-15T19:58:41.371Z,1.20
2022-11-15T20:01:12.608Z,1.10
2022-11-15T20:03:39.357Z,1.10
2022-11-15T20:06:07.645Z,1.03
2022-11-15T20:08:34.690Z,1.20
2022-11-15T20:11:01.724Z,1.00
2022-11-15T20:13:28.367Z,1.20
2022-11-15T20:15:54.969Z,1.37
2022-11-15T20:18:21.714Z,1.20
2022-11-15T20:20:48.345Z,1.30
2022-11-15T20:23:14.930Z,1.17
2022-11-15T20:25:44.264Z,1.30
2022-11-15T20:28:13.262Z,1.30
2022-11-15T20:30:39.838Z,1.10
2022-11-15T20:33:06.416Z,1.20
2022-11-15T20:35:32.983Z,1.17
2022-11-15T20:37:59.587Z,1.27
2022-11-15T20:40:26.161Z,1.27
2022-11-15T20:42:53.564Z,1.20
2022-11-15T20:45:20.137Z,1.20
2022-11-15T20:47:46.706Z,1.20
2022-11-15T20:50:40.516Z,1.27
2022-11-15T20:52:59.838Z,1.20
2022-11-15T20:55:26.645Z,1.07
2022-11-15T20:57:53.724Z,1.20
2022-11-15T21:00:24.816Z,1.00
2022-11-15T21:02:51.692Z,1.10
2022-11-15T21:05:18.421Z,1.20
2022-11-15T21:07:45.067Z,1.13
2022-11-15T21:10:30.204Z,1.20
2022-11-15T21:12:56.794Z,1.20
2022-11-15T21:15:23.386Z,1.23
2022-11-15T21:17:49.981Z,1.10
2022-11-15T21:20:16.800Z,1.23
2022-11-15T21:22:43.375Z,1.13
2022-11-15T21:25:10.038Z,1.10
2022-11-15T21:27:36.608Z,1.20
2022-11-15T21:30:03.522Z,1.20
2022-11-15T21:32:30.155Z,1.20
2022-11-15T21:34:56.952Z,1.13
2022-11-15T21:37:23.528Z,1.27
2022-11-15T21:39:50.128Z,1.10
2022-11-15T21:42:16.723Z,1.20
2022-11-15T21:44:43.305Z,1.30
2022-11-15T21:47:09.935Z,1.20
2022-11-15T21:49:36.551Z,1.03
2022-11-15T21:52:03.182Z,1.03
2022-11-15T21:54:29.757Z,1.27
2022-11-15T21:56:56.339Z,1.00
2022-11-15T21:59:22.907Z,1.00
2022-11-15T22:02:08.163Z,1.33
2022-11-15T22:04:34.798Z,1.40
2022-11-15T22:07:01.429Z,1.33
2022-11-15T22:09:28.055Z,1.20
2022-11-15T22:11:54.634Z,1.20
2022-11-15T22:14:21.215Z,1.20
2022-11-15T22:16:47.782Z,1.20
2022-11-15T22:19:14.423Z,1.23
2022-11-15T22:21:41.053Z,1.13
2022-11-15T22:24:08.061Z,1.20
2022-11-15T22:26:34.655Z,1.30
2022-11-15T22:29:01.261Z,1.17
2022-11-15T22:31:27.874Z,1.17
2022-11-15T22:33:54.444Z,1.20
2022-11-15T22:36:21.042Z,1.00
2022-11-15T22:38:47.657Z,1.10
2022-11-15T22:41:14.253Z,1.03
2022-11-15T22:43:40.844Z,1.40
2022-11-15T22:46:07.405Z,1.13
2022-11-15T22:48:36.249Z,1.30
2022-11-15T22:51:03.132Z,1.20
2022-11-15T22:53:29.762Z,1.30
2022-11-15T22:55:58.441Z,1.10
2022-11-15T22:58:26.179Z,1.00
2022-11-15T23:00:54.524Z,1.37
2022-11-15T23:03:21.405Z,1.20
2022-11-15T23:05:48.468Z,1.30
2022-11-15T23:08:15.227Z,1.13
2022-11-15T23:11:00.530Z,1.10
2022-11-15T23:13:28.199Z,1.10
2022-11-15T23:16:23.320Z,1.30
2022-11-15T23:18:54.381Z,1.20
2022-11-15T23:22:02.454Z,1.17
2022-11-15T23:24:29.674Z,1.00
2022-11-15T23:26:58.126Z,1.20
2022-11-15T23:29:25.535Z,1.20
2022-11-15T23:32:11.197Z,1.10
2022-11-15T23:34:39.494Z,1.20
2022-11-15T23:37:06.761Z,1.47
2022-11-15T23:39:33.336Z,1.10
2022-11-15T23:42:03.183Z,1.13
2022-11-15T23:44:32.599Z,1.13
2022-11-15T23:46:59.162Z,1.30
2022-11-15T23:49:25.954Z,1.30
2022-11-15T23:51:52.553Z,1.20
2022-11-15T23:54:19.121Z,1.10
2022-11-15T23:56:45.867Z,1.30
2022-11-15T23:59:12.453Z,1.27
